Time;durP1;ratioP1;P1;durP2;ratioP2;P2;SDS_P1;SDS_P2;PMS_P1;PMS_P2;Temp;Humidity;BMP_temperature;BMP_pressure;BME280_temperature;BME280_humidity;BME280_pressure;Samples;Min_cycle;Max_cycle;Signal;HPM_P1;HPM_P2
2022/04/11 00:01:28;;;;;;;1.88;0.90;;;;;;;3.36;64.65;99218.59;5033844;28;20053;-52
2022/04/11 00:04:12;;;;;;;2.85;1.20;;;;;;;3.45;63.98;99221.72;5033878;28;20541;-53
2022/04/11 00:06:57;;;;;;;2.30;0.85;;;;;;;3.49;64.19;99219.03;5033179;28;20046;-49
2022/04/11 00:09:43;;;;;;;2.72;0.77;;;;;;;3.48;64.44;99209.59;5033969;28;20393;-49
2022/04/11 00:12:34;;;;;;;1.13;0.70;;;;;;;3.53;63.84;99211.13;5033504;28;20103;-51
2022/04/11 00:15:19;;;;;;;2.80;1.00;;;;;;;3.60;63.45;99209.19;5033865;28;20050;-53
2022/04/11 00:18:04;;;;;;;2.10;0.52;;;;;;;3.41;64.31;99214.94;5032869;28;20045;-54
2022/04/11 00:20:50;;;;;;;1.95;0.90;;;;;;;3.44;63.86;99207.06;5033499;28;20076;-51
2022/04/11 00:23:35;;;;;;;2.08;0.70;;;;;;;3.41;64.05;99214.13;5031799;28;20049;-53
2022/04/11 00:26:19;;;;;;;1.95;1.10;;;;;;;3.33;64.28;99209.16;5033608;28;20045;-51
2022/04/11 00:29:05;;;;;;;1.02;0.60;;;;;;;3.34;64.29;99208.28;5034063;28;20053;-54
2022/04/11 00:31:50;;;;;;;2.15;1.05;;;;;;;3.31;64.15;99210.97;5033506;28;20053;-53
2022/04/11 00:34:34;;;;;;;1.45;0.98;;;;;;;3.31;64.14;99214.38;5033636;28;20053;-52
2022/04/11 00:37:19;;;;;;;3.10;0.68;;;;;;;3.34;63.61;99218.63;5033288;28;20045;-52
2022/04/11 00:40:08;;;;;;;1.23;0.65;;;;;;;3.53;63.28;99213.72;5032887;28;20042;-53
2022/04/11 00:42:53;;;;;;;2.70;1.08;;;;;;;3.43;63.50;99207.97;5033516;28;20506;-52
2022/04/11 00:45:38;;;;;;;1.83;0.82;;;;;;;3.44;63.53;99214.00;5032491;28;20053;-51
2022/04/11 00:48:23;;;;;;;1.70;0.63;;;;;;;3.42;63.29;99215.78;5032098;28;20496;-53
2022/04/11 00:51:22;;;;;;;1.42;0.68;;;;;;;3.37;64.08;99222.84;5032424;28;20053;-55
2022/04/11 00:54:07;;;;;;;2.13;0.88;;;;;;;3.30;64.52;99227.38;5032025;28;20523;-53
2022/04/11 00:56:55;;;;;;;1.92;0.93;;;;;;;3.35;64.12;99229.81;5032786;28;20464;-49
2022/04/11 00:59:40;;;;;;;1.33;0.90;;;;;;;3.16;64.47;99225.22;5032050;28;20073;-53
2022/04/11 01:02:24;;;;;;;2.10;0.95;;;;;;;3.45;63.96;99226.91;5012254;28;20046;-55
2022/04/11 01:05:11;;;;;;;2.80;1.02;;;;;;;3.40;63.69;99233.13;5013474;28;20104;-52
2022/04/11 01:08:05;;;;;;;1.88;1.00;;;;;;;3.30;64.05;99232.56;5013398;28;20120;-53
2022/04/11 01:10:54;;;;;;;2.17;1.00;;;;;;;3.30;63.94;99238.59;5012837;28;20052;-53
2022/04/11 01:13:42;;;;;;;3.03;1.00;;;;;;;3.40;63.71;99233.13;5025897;28;20058;-57
2022/04/11 01:16:28;;;;;;;2.45;1.10;;;;;;;3.48;62.91;99241.50;5025874;28;20042;-51
2022/04/11 01:19:13;;;;;;;1.08;0.40;;;;;;;3.52;62.79;99227.56;5025702;28;20053;-53
2022/04/11 01:21:58;;;;;;;2.45;1.27;;;;;;;3.60;62.37;99231.66;5025341;28;20405;-55
2022/04/11 01:24:43;;;;;;;3.17;0.90;;;;;;;3.63;62.18;99228.94;5025965;28;20107;-54
2022/04/11 01:27:30;;;;;;;1.75;0.75;;;;;;;3.73;61.51;99235.53;5012823;28;20100;-56
2022/04/11 01:30:18;;;;;;;1.90;0.95;;;;;;;3.60;61.65;99234.22;5026169;28;20232;-50
2022/04/11 01:33:25;;;;;;;2.22;1.00;;;;;;;3.67;61.60;99240.94;5011934;28;20038;-53
2022/04/11 01:36:10;;;;;;;2.85;1.13;;;;;;;3.79;62.14;99244.84;5025181;28;20046;-52
2022/04/11 01:38:56;;;;;;;1.35;0.80;;;;;;;3.64;62.25;99241.03;5025724;28;20041;-51
2022/04/11 01:41:41;;;;;;;3.33;1.00;;;;;;;3.76;62.45;99245.81;5012063;28;20072;-53
2022/04/11 01:44:26;;;;;;;1.90;0.80;;;;;;;3.62;63.69;99255.78;5025539;28;20104;-53
2022/04/11 01:47:11;;;;;;;2.55;1.00;;;;;;;3.51;64.09;99250.94;5025232;28;20494;-52
2022/04/11 01:49:57;;;;;;;5.20;0.88;;;;;;;3.62;64.04;99250.59;5025375;28;20042;-53
2022/04/11 01:52:42;;;;;;;1.33;0.98;;;;;;;3.72;63.18;99244.19;5011356;28;20053;-52
2022/04/11 01:55:27;;;;;;;2.85;0.93;;;;;;;3.64;63.71;99251.41;5025129;28;20069;-54
2022/04/11 01:58:13;;;;;;;2.38;1.10;;;;;;;3.76;63.65;99251.00;5024650;28;20053;-54
2022/04/11 02:00:59;;;;;;;2.92;1.17;;;;;;;3.85;62.20;99255.03;5011465;28;20112;-53
2022/04/11 02:03:44;;;;;;;2.20;1.05;;;;;;;3.72;62.04;99245.97;5025129;28;20474;-54
2022/04/11 02:06:29;;;;;;;3.08;0.90;;;;;;;3.75;62.12;99243.25;5038259;28;20049;-54
2022/04/11 02:09:14;;;;;;;3.97;0.90;;;;;;;3.84;62.44;99247.28;5043902;28;20103;-54
2022/04/11 02:11:59;;;;;;;2.47;1.10;;;;;;;3.84;61.78;99239.50;5031821;28;20049;-51
2022/04/11 02:14:43;;;;;;;1.70;0.93;;;;;;;3.41;63.34;99234.84;5024897;28;20057;-53
2022/04/11 02:17:28;;;;;;;3.05;1.00;;;;;;;3.47;63.44;99236.38;5010819;28;20507;-55
2022/04/11 02:20:13;;;;;;;2.17;0.80;;;;;;;3.50;63.55;99233.69;5011651;28;20121;-51
2022/04/11 02:23:00;;;;;;;2.78;1.00;;;;;;;3.61;63.22;99235.94;5020720;28;20504;-52
2022/04/11 02:25:44;;;;;;;4.03;0.98;;;;;;;3.50;63.40;99239.72;5032055;28;20065;-51
2022/04/11 02:28:30;;;;;;;3.47;1.20;;;;;;;3.50;63.45;99234.53;5030562;28;20084;-51
2022/04/11 02:31:14;;;;;;;3.00;0.90;;;;;;;3.55;63.47;99234.38;5030275;28;20469;-52
2022/04/11 02:33:59;;;;;;;3.05;1.45;;;;;;;3.61;63.27;99234.19;5030249;28;20042;-49
2022/04/11 02:36:44;;;;;;;1.83;0.90;;;;;;;3.63;63.14;99229.81;5030500;28;20369;-52
2022/04/11 02:39:29;;;;;;;3.13;0.93;;;;;;;3.64;63.11;99234.09;5030382;28;20038;-53
2022/04/11 02:42:24;;;;;;;2.20;1.17;;;;;;;3.53;63.32;99231.84;5030317;28;20499;-50
2022/04/11 02:45:15;;;;;;;1.52;0.88;;;;;;;3.52;63.51;99231.91;5044203;28;20037;-52
2022/04/11 02:48:00;;;;;;;1.65;0.90;;;;;;;3.45;63.71;99239.00;5016411;28;20071;-53
2022/04/11 02:50:51;;;;;;;3.25;1.20;;;;;;;3.35;64.63;99238.44;5030297;28;20046;-53
2022/04/11 02:53:41;;;;;;;1.60;0.93;;;;;;;3.30;64.15;99238.59;5017447;28;20052;-53
2022/04/11 02:56:26;;;;;;;1.90;0.90;;;;;;;3.32;64.10;99248.91;5030140;28;20296;-53
2022/04/11 02:59:11;;;;;;;1.63;0.95;;;;;;;3.27;64.00;99238.69;5002468;28;20045;-54
2022/04/11 03:02:00;;;;;;;3.20;1.02;;;;;;;3.16;64.54;99245.94;5025299;28;20045;-52
2022/04/11 03:04:46;;;;;;;5.13;1.10;;;;;;;3.22;64.46;99250.06;5030092;28;20066;-53
2022/04/11 03:07:36;;;;;;;2.42;1.23;;;;;;;3.18;64.48;99247.59;5034148;28;20056;-53
2022/04/11 03:10:21;;;;;;;3.20;1.17;;;;;;;3.04;65.22;99253.19;5034049;28;20103;-54
2022/04/11 03:13:10;;;;;;;2.40;1.20;;;;;;;3.01;65.86;99250.69;5033586;28;20049;-51
2022/04/11 03:15:55;;;;;;;1.65;0.95;;;;;;;3.16;65.06;99257.16;5014090;28;20483;-54
2022/04/11 03:18:41;;;;;;;3.15;1.33;;;;;;;3.19;65.15;99256.22;5028076;28;20053;-55
2022/04/11 03:21:26;;;;;;;1.98;1.10;;;;;;;3.01;65.71;99263.63;5028120;28;20507;-51
2022/04/11 03:24:20;;;;;;;1.98;0.77;;;;;;;3.03;65.67;99261.84;5027790;28;20046;-52
2022/04/11 03:27:05;;;;;;;2.40;1.40;;;;;;;3.01;66.30;99267.97;5014147;28;20050;-53
2022/04/11 03:29:54;;;;;;;2.20;1.10;;;;;;;2.90;66.43;99258.78;5028201;28;20046;-54
2022/04/11 03:32:40;;;;;;;1.58;0.90;;;;;;;2.85;66.72;99263.22;5027929;28;20117;-51
2022/04/11 03:35:29;;;;;;;2.45;1.05;;;;;;;2.91;67.26;99263.06;5000785;28;20053;-50
2022/04/11 03:38:15;;;;;;;2.20;1.15;;;;;;;2.92;67.22;99262.16;5013857;28;20044;-52
2022/04/11 03:41:01;;;;;;;1.60;1.10;;;;;;;2.98;66.67;99271.50;5014931;28;20042;-53
2022/04/11 03:43:46;;;;;;;1.77;1.08;;;;;;;3.11;66.25;99269.38;5013896;28;20489;-54
2022/04/11 03:46:32;;;;;;;3.92;1.55;;;;;;;2.98;67.11;99279.25;5013716;28;20058;-52
2022/04/11 03:49:18;;;;;;;4.20;1.63;;;;;;;2.76;67.96;99277.28;5013508;28;20042;-54
2022/04/11 03:52:03;;;;;;;2.60;1.20;;;;;;;2.53;69.30;99283.94;5013502;28;20042;-50
2022/04/11 03:54:49;;;;;;;2.90;1.63;;;;;;;2.47;69.82;99294.44;4999915;28;20046;-52
2022/04/11 03:57:36;;;;;;;2.65;1.58;;;;;;;2.44;70.25;99291.94;5000032;28;20074;-52
2022/04/11 04:00:22;;;;;;;2.20;1.00;;;;;;;2.50;69.34;99293.53;5012559;28;20489;-53
2022/04/11 04:03:33;;;;;;;1.77;1.08;;;;;;;2.54;69.45;99296.00;5022621;28;20056;-54
2022/04/11 04:06:22;;;;;;;3.85;1.77;;;;;;;2.57;69.34;99295.06;5024473;28;20119;-50
2022/04/11 04:09:07;;;;;;;2.97;1.40;;;;;;;2.59;69.24;99299.28;5013466;28;20092;-54
2022/04/11 04:11:53;;;;;;;6.55;1.90;;;;;;;2.59;69.41;99308.81;5031604;28;20041;-51
2022/04/11 04:14:44;;;;;;;3.72;2.10;;;;;;;2.34;70.49;99299.09;5010329;28;20046;-54
2022/04/11 04:17:30;;;;;;;5.53;1.85;;;;;;;2.22;70.86;99301.09;5030896;28;20061;-49
2022/04/11 04:20:19;;;;;;;4.07;1.90;;;;;;;1.91;72.55;99301.88;5046036;28;20041;-53
2022/04/11 04:23:05;;;;;;;3.60;1.92;;;;;;;2.00;72.34;99310.28;5032713;28;20111;-50
2022/04/11 04:25:52;;;;;;;1.77;1.30;;;;;;;1.95;72.40;99305.22;5032625;28;20447;-55
2022/04/11 04:28:37;;;;;;;2.85;2.40;;;;;;;2.03;72.30;99316.25;5033585;28;20053;-50
2022/04/11 04:31:22;;;;;;;3.38;1.85;;;;;;;1.96;72.75;99319.84;5018877;28;20115;-53
2022/04/11 04:34:07;;;;;;;2.78;1.52;;;;;;;2.03;72.62;99321.41;5033399;28;20041;-52
2022/04/11 04:36:53;;;;;;;2.50;1.50;;;;;;;2.05;72.27;99331.72;5039436;28;20042;-51
2022/04/11 04:39:39;;;;;;;4.70;1.90;;;;;;;2.08;72.67;99329.03;5012388;28;20053;-53
2022/04/11 04:42:26;;;;;;;4.70;2.28;;;;;;;2.06;72.79;99331.66;5021524;28;20067;-52
2022/04/11 04:45:15;;;;;;;6.40;2.03;;;;;;;2.04;72.96;99323.09;5032013;28;20496;-55
2022/04/11 04:48:18;;;;;;;2.97;1.95;;;;;;;2.18;72.07;99333.13;5019627;28;20119;-53
2022/04/11 04:51:05;;;;;;;4.22;2.15;;;;;;;2.32;71.51;99335.34;5011470;28;20037;-56
2022/04/11 04:53:53;;;;;;;4.63;1.70;;;;;;;2.35;71.43;99334.41;5023180;28;20053;-53
2022/04/11 04:56:38;;;;;;;1.85;1.08;;;;;;;2.50;70.37;99333.16;5012150;28;20125;-55
2022/04/11 04:59:30;;;;;;;4.57;1.75;;;;;;;2.75;69.84;99337.69;5013771;28;20050;-55
2022/04/11 05:02:20;;;;;;;2.60;1.33;;;;;;;2.99;68.68;99337.91;5012160;28;20106;-55
2022/04/11 05:05:08;;;;;;;1.85;1.02;;;;;;;3.08;68.24;99335.03;5012131;28;20443;-55
2022/04/11 05:07:53;;;;;;;3.30;1.42;;;;;;;3.33;67.35;99339.53;5012799;28;20046;-54
2022/04/11 05:10:42;;;;;;;3.25;1.30;;;;;;;3.54;66.53;99339.75;5012052;28;20041;-55
2022/04/11 05:13:29;;;;;;;3.88;1.50;;;;;;;3.54;66.88;99342.34;5012333;28;20061;-55
2022/04/11 05:16:15;;;;;;;3.10;1.33;;;;;;;3.60;66.55;99340.47;5013461;28;20037;-54
2022/04/11 05:19:02;;;;;;;3.05;1.40;;;;;;;3.51;66.78;99337.28;5022979;28;20120;-52
2022/04/11 05:21:47;;;;;;;4.60;1.67;;;;;;;3.49;67.10;99352.03;5025022;28;20045;-52
2022/04/11 05:24:33;;;;;;;3.42;1.70;;;;;;;3.41;67.45;99354.00;5024662;28;20038;-50
2022/04/11 05:27:18;;;;;;;2.80;1.40;;;;;;;3.64;66.72;99340.34;5022358;28;20774;-54
2022/04/11 05:30:05;;;;;;;2.58;1.35;;;;;;;3.72;66.22;99353.06;5022788;28;20401;-51
2022/04/11 05:32:52;;;;;;;5.57;1.88;;;;;;;3.89;65.64;99352.53;5024424;28;20045;-53
2022/04/11 05:35:36;;;;;;;3.85;1.92;;;;;;;5.04;73.57;99349.59;5011413;28;20049;-45
2022/04/11 05:38:27;;;;;;;4.05;1.52;;;;;;;6.56;77.65;99351.56;5011600;28;20037;-43
2022/04/11 05:41:14;;;;;;;3.38;1.30;;;;;;;7.20;74.27;99349.63;5012692;28;20037;-42
2022/04/11 05:44:10;;;;;;;5.03;1.25;;;;;;;7.22;77.44;99350.41;5011160;28;20057;-47
2022/04/11 05:47:00;;;;;;;5.40;2.28;;;;;;;5.92;65.49;99354.97;5011508;28;20045;-60
2022/04/11 05:49:54;;;;;;;3.40;1.45;;;;;;;4.34;65.66;99354.59;5011089;28;20347;-63
2022/04/11 05:52:39;;;;;;;3.17;1.80;;;;;;;4.29;64.84;99365.13;5012355;28;20046;-62
2022/04/11 05:55:24;;;;;;;2.47;1.70;;;;;;;4.16;65.63;99365.50;5011065;28;20412;-62
2022/04/11 05:58:08;;;;;;;5.28;2.28;;;;;;;3.93;66.79;99366.25;5010978;28;20216;-60
2022/04/11 06:00:54;;;;;;;3.00;1.63;;;;;;;4.13;65.61;99357.81;5011348;28;20045;-65
2022/04/11 06:03:38;;;;;;;3.58;1.50;;;;;;;4.31;65.23;99366.75;5010891;28;20255;-61
2022/04/11 06:06:23;;;;;;;3.28;1.70;;;;;;;4.21;64.58;99361.94;5010882;28;20056;-61
2022/04/11 06:09:08;;;;;;;4.60;2.10;;;;;;;4.04;66.25;99364.19;5015281;28;20049;-60
2022/04/11 06:11:55;;;;;;;4.07;1.85;;;;;;;4.27;65.48;99372.09;5029126;28;20485;-59
2022/04/11 06:14:39;;;;;;;3.80;1.80;;;;;;;4.85;64.02;99370.19;5024150;28;20049;-61
2022/04/11 06:17:24;;;;;;;3.80;1.40;;;;;;;5.37;62.07;99362.22;5030802;28;20061;-61
2022/04/11 06:20:10;;;;;;;3.45;1.40;;;;;;;5.18;61.11;99369.88;5030087;28;20045;-58
2022/04/11 06:22:55;;;;;;;3.05;1.45;;;;;;;5.02;62.35;99361.78;5030416;28;20081;-58
2022/04/11 06:25:40;;;;;;;3.83;1.42;;;;;;;5.55;60.80;99360.69;5010719;28;20041;-58
2022/04/11 06:28:25;;;;;;;3.42;1.80;;;;;;;5.42;60.95;99360.31;5044309;28;20045;-58
2022/04/11 06:31:10;;;;;;;4.03;1.67;;;;;;;6.54;57.83;99362.03;5030733;28;20045;-59
2022/04/11 06:33:55;;;;;;;2.67;1.67;;;;;;;6.49;57.29;99372.66;5030252;28;20041;-58
2022/04/11 06:36:42;;;;;;;4.00;1.60;;;;;;;6.49;56.57;99362.25;5016533;28;20779;-58
2022/04/11 06:39:27;;;;;;;3.20;1.45;;;;;;;6.55;56.56;99361.13;5029861;28;20057;-58
2022/04/11 06:42:15;;;;;;;4.88;2.03;;;;;;;6.29;56.51;99363.06;5029685;28;20042;-59
2022/04/11 06:45:04;;;;;;;3.28;1.55;;;;;;;5.88;58.36;99372.44;5004555;28;20077;-59
2022/04/11 06:47:50;;;;;;;3.65;1.77;;;;;;;6.18;57.07;99360.91;5012109;28;20058;-59
2022/04/11 06:50:36;;;;;;;4.55;2.00;;;;;;;6.75;55.14;99368.09;5025891;28;20364;-58
2022/04/11 06:53:21;;;;;;;4.22;1.75;;;;;;;5.57;58.72;99371.03;5023518;28;20096;-58
2022/04/11 06:56:06;;;;;;;5.05;1.90;;;;;;;5.58;58.82;99366.69;5012262;28;20070;-59
2022/04/11 06:58:51;;;;;;;5.00;1.65;;;;;;;5.66;58.80;99370.66;5011429;28;20050;-57
2022/04/11 07:01:35;;;;;;;3.72;1.45;;;;;;;6.38;57.27;99367.03;5017231;28;20493;-60
2022/04/11 07:04:21;;;;;;;5.30;2.05;;;;;;;6.19;56.83;99369.53;5013987;28;20054;-60
2022/04/11 07:07:05;;;;;;;55.95;26.92;;;;;;;6.55;67.03;99375.88;5022560;28;20057;-52
2022/04/11 07:09:50;;;;;;;8.43;3.72;;;;;;;7.23;55.02;99374.72;5013618;28;20165;-57
2022/04/11 07:12:42;;;;;;;4.97;2.67;;;;;;;7.80;53.83;99360.81;5011044;28;20038;-59
2022/04/11 07:15:26;;;;;;;5.32;2.67;;;;;;;8.30;51.35;99368.88;5030447;28;20045;-60
2022/04/11 07:18:11;;;;;;;4.47;1.92;;;;;;;8.06;51.67;99366.53;5018160;28;20042;-58
2022/04/11 07:20:57;;;;;;;4.82;1.98;;;;;;;7.00;54.04;99361.78;5017648;28;20046;-60
2022/04/11 07:23:42;;;;;;;7.15;3.40;;;;;;;7.15;55.29;99362.88;5014158;28;20107;-59
2022/04/11 07:26:27;;;;;;;4.32;1.92;;;;;;;6.82;55.57;99368.66;5029609;28;20045;-60
2022/04/11 07:29:12;;;;;;;4.30;2.10;;;;;;;6.97;55.05;99374.13;5030619;28;20042;-60
2022/04/11 07:31:56;;;;;;;6.35;2.22;;;;;;;7.45;54.47;99368.53;5001859;28;20404;-60
2022/04/11 07:34:41;;;;;;;4.03;2.53;;;;;;;8.23;51.53;99367.47;5030412;28;20068;-63
2022/04/11 07:37:28;;;;;;;5.10;2.00;;;;;;;8.91;50.13;99367.63;5030162;28;20364;-60
2022/04/11 07:40:12;;;;;;;6.10;2.38;;;;;;;9.14;49.81;99360.34;5010444;28;20434;-60
2022/04/11 07:42:57;;;;;;;3.40;1.98;;;;;;;9.70;48.20;99362.56;5027333;28;20060;-60
2022/04/11 07:45:43;;;;;;;5.00;1.65;;;;;;;9.31;48.82;99364.66;5012423;28;20058;-59
2022/04/11 07:48:27;;;;;;;3.45;2.20;;;;;;;9.54;47.83;99360.81;5011191;28;20086;-59
2022/04/11 07:51:12;;;;;;;4.55;2.05;;;;;;;8.65;49.41;99359.38;5011983;28;20042;-60
2022/04/11 07:53:57;;;;;;;6.88;2.03;;;;;;;8.54;49.25;99350.28;5014301;28;20117;-59
2022/04/11 07:56:41;;;;;;;5.22;2.00;;;;;;;9.14;48.07;99355.13;5014211;28;20042;-61
2022/04/11 07:59:26;;;;;;;4.35;1.92;;;;;;;10.16;45.58;99353.91;5013176;28;20048;-59
2022/04/11 08:02:11;;;;;;;2.40;1.77;;;;;;;9.30;47.59;99349.91;5013946;28;20049;-61
2022/04/11 08:04:55;;;;;;;5.55;1.80;;;;;;;10.18;45.83;99349.44;5014263;28;20052;-63
2022/04/11 08:07:40;;;;;;;2.67;1.80;;;;;;;10.65;44.30;99348.53;5013074;28;20085;-60
2022/04/11 08:10:24;;;;;;;4.10;2.00;;;;;;;7.76;50.03;99351.44;5013917;28;20038;-61
2022/04/11 08:13:09;;;;;;;4.03;2.13;;;;;;;7.25;51.73;99373.72;5014630;28;20061;-58
2022/04/11 08:15:54;;;;;;;3.50;2.00;;;;;;;7.45;52.54;99371.97;5032571;28;20072;-61
2022/04/11 08:18:39;;;;;;;3.70;2.08;;;;;;;9.31;48.51;99370.75;5046804;28;20056;-60
2022/04/11 08:21:23;;;;;;;3.90;1.83;;;;;;;8.88;48.35;99373.84;5033492;28;20042;-61
2022/04/11 08:24:08;;;;;;;4.95;2.30;;;;;;;8.66;50.10;99381.94;5033522;28;20050;-55
2022/04/11 08:26:53;;;;;;;6.57;2.00;;;;;;;8.51;50.42;99373.94;5032543;28;20081;-62
2022/04/11 08:29:38;;;;;;;3.72;1.73;;;;;;;8.44;50.57;99370.78;5033555;28;20481;-59
2022/04/11 08:32:22;;;;;;;5.47;2.08;;;;;;;8.31;50.12;99377.53;5033416;28;20045;-61
2022/04/11 08:35:08;;;;;;;3.00;1.80;;;;;;;9.69;46.48;99360.91;5043800;28;20041;-59
2022/04/11 08:37:53;;;;;;;3.72;1.65;;;;;;;8.92;48.24;99375.41;5032879;28;20049;-61
2022/04/11 08:40:39;;;;;;;7.28;2.38;;;;;;;9.49;46.86;99361.06;5033239;28;20053;-62
2022/04/11 08:43:26;;;;;;;3.08;1.85;;;;;;;9.50;46.60;99380.22;5031682;28;20385;-60
2022/04/11 08:46:17;;;;;;;5.18;2.08;;;;;;;10.19;45.11;99366.81;5031338;28;20046;-60
2022/04/11 08:49:04;;;;;;;4.57;2.10;;;;;;;9.54;46.84;99373.91;5033081;28;20044;-62
2022/04/11 08:51:50;;;;;;;3.35;1.95;;;;;;;8.79;47.45;99376.94;5031631;28;20065;-59
2022/04/11 08:54:36;;;;;;;6.55;1.77;;;;;;;8.89;47.74;99379.94;5033180;28;20072;-60
2022/04/11 08:57:22;;;;;;;5.03;2.33;;;;;;;8.84;47.41;99381.03;5019463;28;20037;-58
2022/04/11 09:00:20;;;;;;;4.63;2.00;;;;;;;9.66;46.98;99379.38;5029123;28;20097;-59
2022/04/11 09:03:06;;;;;;;3.30;1.58;;;;;;;10.05;44.81;99379.84;5031871;28;20042;-58
2022/04/11 09:06:14;;;;;;;2.90;1.40;;;;;;;9.47;44.78;99377.75;5031962;28;20092;-56
2022/04/11 09:09:12;;;;;;;4.13;1.85;;;;;;;9.26;45.63;99382.38;5032321;28;20500;-56
2022/04/11 09:11:57;;;;;;;3.60;1.55;;;;;;;10.22;44.43;99377.13;5014876;28;20050;-58
2022/04/11 09:16:51;;;;;;;7.55;1.85;;;;;;;11.19;49.06;99384.63;5088969;27;20419;-58
2022/04/11 09:19:36;;;;;;;4.07;1.70;;;;;;;10.67;41.14;99385.97;5069570;28;20044;-58
2022/04/11 09:22:30;;;;;;;4.72;1.90;;;;;;;9.27;45.45;99391.91;5069753;28;20496;-59
2022/04/11 09:25:23;;;;;;;2.55;1.67;;;;;;;9.14;43.98;99384.72;5067729;28;20433;-58
2022/04/11 09:28:10;;;;;;;4.53;2.10;;;;;;;10.99;40.46;99383.19;5068419;28;20049;-58
2022/04/11 09:30:55;;;;;;;3.95;1.65;;;;;;;11.59;38.47;99380.44;5067479;28;20045;-58
2022/04/11 09:33:40;;;;;;;4.85;1.80;;;;;;;11.49;38.91;99384.59;5068573;28;20083;-58
2022/04/11 09:36:44;;;;;;;2.47;1.38;;;;;;;11.82;36.40;99384.22;5068373;28;20037;-58
2022/04/11 09:39:33;;;;;;;3.38;1.70;;;;;;;11.37;38.17;99388.81;5069268;28;20143;-57
2022/04/11 09:42:31;;;;;;;3.05;1.58;;;;;;;12.49;37.57;99380.88;5073609;28;20044;-57
2022/04/11 09:45:17;;;;;;;4.25;1.70;;;;;;;12.41;37.27;99379.63;5072360;28;20044;-57
2022/04/11 09:48:05;;;;;;;4.22;1.98;;;;;;;12.21;36.16;99372.22;5067965;28;20075;-57
2022/04/11 09:50:51;;;;;;;4.82;1.88;;;;;;;10.98;37.81;99381.53;5068214;28;20045;-58
2022/04/11 09:53:36;;;;;;;5.07;1.90;;;;;;;12.35;38.27;99372.16;5067707;28;20091;-57
2022/04/11 09:56:22;;;;;;;3.75;1.90;;;;;;;14.28;35.25;99370.25;5067278;28;20060;-59
2022/04/11 09:59:10;;;;;;;6.13;2.75;;;;;;;15.30;36.80;99373.16;5066818;28;20045;-60
2022/04/11 10:01:58;;;;;;;4.78;1.60;;;;;;;15.03;33.52;99376.03;5066565;28;20530;-58
2022/04/11 10:04:46;;;;;;;3.03;1.60;;;;;;;12.57;37.70;99362.81;5067808;28;20048;-60
2022/04/11 10:07:31;;;;;;;3.03;1.70;;;;;;;13.08;37.68;99370.81;5068193;28;20049;-59
2022/04/11 10:10:17;;;;;;;4.25;2.10;;;;;;;14.90;34.98;99360.31;5067639;28;20068;-59
2022/04/11 10:13:03;;;;;;;2.90;1.58;;;;;;;14.50;35.39;99358.06;5080848;28;20032;-57
2022/04/11 10:15:49;;;;;;;3.53;2.17;;;;;;;16.52;46.78;99353.69;5085646;28;20052;-60
2022/04/11 10:18:34;;;;;;;5.20;1.90;;;;;;;16.37;32.08;99364.59;5071433;28;20136;-60
2022/04/11 10:21:19;;;;;;;3.00;1.52;;;;;;;13.41;33.73;99361.50;5067235;28;20476;-59
2022/04/11 10:24:06;;;;;;;2.13;1.63;;;;;;;14.60;31.80;99360.84;5067141;28;20048;-59
2022/04/11 10:26:53;;;;;;;3.03;1.70;;;;;;;15.76;30.30;99358.09;5061446;28;20041;-60
2022/04/11 10:29:38;;;;;;;3.80;1.70;;;;;;;16.97;29.50;99357.00;5052751;28;20041;-60
2022/04/11 10:32:27;;;;;;;3.88;1.60;;;;;;;16.32;30.02;99350.91;5053937;28;20480;-60
2022/04/11 10:35:11;;;;;;;2.17;1.50;;;;;;;16.11;30.58;99350.88;5053926;28;20056;-60
2022/04/11 10:37:56;;;;;;;4.90;1.80;;;;;;;13.49;34.35;99358.31;5039226;28;20063;-62
2022/04/11 10:40:49;;;;;;;2.33;1.85;;;;;;;12.26;36.94;99355.19;5053183;28;20056;-61
2022/04/11 10:43:33;;;;;;;3.00;1.70;;;;;;;13.05;41.19;99356.09;5053766;28;20503;-61
2022/04/11 10:46:18;;;;;;;4.32;1.80;;;;;;;15.15;35.92;99349.66;5052388;28;20076;-59
2022/04/11 10:49:07;;;;;;;4.50;2.03;;;;;;;16.13;32.72;99333.09;5053596;28;20094;-59
2022/04/11 10:52:28;;;;;;;3.17;1.70;;;;;;;16.13;31.07;99335.75;5053956;28;20060;-62
2022/04/11 10:55:19;;;;;;;;;;;;;;;15.09;32.02;99339.59;5053804;28;20052;-58
2022/04/11 10:58:04;;;;;;;3.08;1.40;;;;;;;15.68;30.08;99334.09;5053162;28;20016;-58
2022/04/11 11:00:51;;;;;;;3.58;1.58;;;;;;;14.30;30.60;99341.97;5053559;28;20106;-58
2022/04/11 11:03:40;;;;;;;3.20;1.80;;;;;;;14.86;30.74;99344.84;5053587;28;20506;-59
2022/04/11 11:06:25;;;;;;;2.25;1.48;;;;;;;15.88;28.77;99346.50;5054926;28;20177;-61
2022/04/11 11:09:17;;;;;;;2.85;1.48;;;;;;;16.68;29.42;99347.94;5058682;28;20112;-59
2022/04/11 11:12:19;;;;;;;3.78;1.70;;;;;;;16.96;29.30;99340.28;5052263;28;20050;-59
2022/04/11 11:15:27;;;;;;;3.95;2.15;;;;;;;17.92;28.39;99318.78;5069852;28;20136;-58
2022/04/11 11:18:12;;;;;;;2.50;1.52;;;;;;;17.93;27.37;99312.50;5073083;28;20064;-58
2022/04/11 11:20:57;;;;;;;2.55;1.52;;;;;;;17.09;28.93;99326.00;5072545;28;20047;-58
2022/04/11 11:27:03;;;;;;;3.03;1.95;;;;;;;15.68;34.74;99327.03;5060839;28;20070;-58
2022/04/11 11:29:48;;;;;;;4.95;1.88;;;;;;;12.22;35.25;99319.59;5053532;28;20181;-58
2022/04/11 11:32:39;;;;;;;5.38;1.48;;;;;;;11.70;36.67;99317.59;5086191;28;20047;-58
2022/04/11 11:35:24;;;;;;;2.13;1.40;;;;;;;13.85;40.05;99314.50;5061407;28;20217;-58
2022/04/11 11:38:09;;;;;;;2.63;1.50;;;;;;;-148.16;100.00;58328.31;5044759;28;20089;-61
2022/04/11 11:40:58;;;;;;;4.43;1.98;;;;;;;-148.16;100.00;58328.31;5071759;28;20038;-65
2022/04/11 11:43:44;;;;;;;4.00;1.70;;;;;;;-148.16;100.00;58328.31;5071573;28;20048;-59
2022/04/11 11:46:29;;;;;;;3.10;1.70;;;;;;;-148.16;100.00;58328.31;5072602;28;20091;-63
2022/04/11 11:49:13;;;;;;;4.20;1.63;;;;;;;-148.16;100.00;58328.31;5071943;28;20062;-59
2022/04/11 11:51:58;;;;;;;5.13;1.77;;;;;;;-148.16;100.00;58328.31;5072591;28;20040;-61
2022/04/11 11:54:46;;;;;;;2.55;1.63;;;;;;;-148.16;100.00;58328.31;5072420;28;20044;-64
2022/04/11 11:57:31;;;;;;;3.22;1.58;;;;;;;-148.16;100.00;58328.31;5072510;28;20124;-73
2022/04/11 12:00:16;;;;;;;2.83;1.55;;;;;;;-148.16;100.00;58328.31;5072283;28;20402;-65
2022/04/11 12:06:03;;;;;;;3.75;1.70;;;;;;;-148.16;100.00;58328.31;5071986;28;20476;-64
2022/04/11 12:09:03;;;;;;;3.53;1.27;;;;;;;-148.16;100.00;58328.31;5072331;28;20037;-59
2022/04/11 12:11:47;;;;;;;2.67;1.63;;;;;;;-148.16;100.00;58328.31;5072249;28;20048;-59
2022/04/11 12:14:59;;;;;;;1.92;1.35;;;;;;;-148.16;100.00;58328.31;5071938;28;20052;-60
2022/04/11 12:17:47;;;;;;;2.60;1.42;;;;;;;-148.16;100.00;58328.31;5072288;28;20040;-59
2022/04/11 12:20:33;;;;;;;2.85;1.23;;;;;;;-148.16;100.00;58328.31;5071965;28;20041;-60
2022/04/11 12:23:18;;;;;;;3.58;1.10;;;;;;;-148.16;100.00;58328.31;5071839;28;20041;-59
2022/04/11 12:26:02;;;;;;;2.80;1.40;;;;;;;-148.16;100.00;58328.31;5071814;28;20060;-60
2022/04/11 12:28:47;;;;;;;2.20;1.00;;;;;;;-148.16;100.00;58328.31;5071723;28;20051;-62
2022/04/11 12:31:33;;;;;;;3.80;1.40;;;;;;;-148.16;100.00;58328.31;5070421;28;20048;-60
2022/04/11 12:34:17;;;;;;;2.80;1.20;;;;;;;-148.16;100.00;58328.31;5070397;28;20408;-65
2022/04/11 12:37:05;;;;;;;2.10;1.10;;;;;;;-148.16;100.00;58328.31;5071650;28;20048;-61
2022/04/11 12:39:54;;;;;;;2.60;1.20;;;;;;;-148.16;100.00;58328.31;5071706;28;20552;-63
2022/04/11 12:42:39;;;;;;;1.50;0.82;;;;;;;-148.16;100.00;58328.31;5070590;28;20041;-61
2022/04/11 12:45:23;;;;;;;3.65;1.00;;;;;;;-148.16;100.00;58328.31;5071354;28;20044;-55
2022/04/11 12:48:09;;;;;;;4.40;0.85;;;;;;;-148.16;100.00;58328.31;5070228;28;20093;-59
2022/04/11 12:51:09;;;;;;;4.25;1.20;;;;;;;-148.16;100.00;58328.31;5070165;28;20036;-61
2022/04/11 12:54:07;;;;;;;1.88;1.00;;;;;;;-148.16;100.00;58328.31;5070559;28;20416;-60
2022/04/11 12:56:53;;;;;;;1.77;0.70;;;;;;;-148.16;100.00;58328.31;5071170;28;20070;-63
2022/04/11 12:59:41;;;;;;;0.73;0.55;;;;;;;-148.16;100.00;58328.31;5060816;28;20085;-64
2022/04/11 13:02:26;;;;;;;1.65;0.93;;;;;;;-148.16;100.00;58328.31;5083314;28;20040;-61
2022/04/11 13:05:15;;;;;;;2.17;0.88;;;;;;;-148.16;100.00;58328.31;5077846;28;20484;-60
2022/04/11 13:08:10;;;;;;;1.95;0.68;;;;;;;-148.16;100.00;58328.31;5065813;28;20043;-58
2022/04/11 13:10:58;;;;;;;1.25;0.70;;;;;;;-148.16;100.00;58328.31;5050947;28;20106;-60
2022/04/11 13:13:44;;;;;;;7.32;0.85;;;;;;;-148.16;100.00;58328.31;5054082;28;20037;-59
2022/04/11 13:19:33;;;;;;;2.33;0.50;;;;;;;-148.16;100.00;58328.31;5051572;28;20481;-55
2022/04/11 13:22:17;;;;;;;2.22;0.93;;;;;;;-148.16;100.00;58328.31;5055880;28;20045;-57